Time,TemperatureF,DewpointF,PressureIn,WindDirection,WindDirectionDegrees,WindSpeedMPH,WindSpeedGustMPH,Humidity,HourlyPrecipIn,Conditions,Clouds,dailyrainin,SoftwareType,DateUTC
2013-08-03 00:02:00,59.9,46.9,29.71,NW,315,0.9,0.9,62,0.00,,---,0.00,VWS V14.00,2013-08-03 07:02:00,
2013-08-03 00:07:00,59.9,47.3,29.71,NW,315,0.0,0.0,63,0.00,,---,0.00,VWS V14.00,2013-08-03 07:07:00,
2013-08-03 00:12:00,59.7,47.1,29.71,West,270,0.0,0.0,63,0.00,,---,0.00,VWS V14.00,2013-08-03 07:12:00,
2013-08-03 00:17:00,59.9,47.7,29.71,SW,225,1.3,1.3,64,0.00,,---,0.00,VWS V14.00,2013-08-03 07:17:00,
2013-08-03 00:23:00,60.1,47.9,29.71,SE,135,2.0,2.0,64,0.00,,---,0.00,VWS V14.00,2013-08-03 07:23:00,
2013-08-03 00:29:00,60.1,48.3,29.71,SSW,202,1.3,1.3,65,0.00,,---,0.00,VWS V14.00,2013-08-03 07:29:00,
2013-08-03 00:34:00,60.3,48.5,29.74,South,180,1.6,2.7,65,0.00,,---,0.00,VWS V14.00,2013-08-03 07:34:00,
2013-08-03 00:38:00,60.3,48.9,29.74,SW,225,1.1,1.1,66,0.00,,---,0.00,VWS V14.00,2013-08-03 07:38:00,
2013-08-03 00:44:00,60.3,48.9,29.74,East,90,2.2,2.2,66,0.00,,---,0.00,VWS V14.00,2013-08-03 07:44:00,
2013-08-03 00:48:00,60.3,48.9,29.74,WSW,248,2.5,2.5,66,0.00,,---,0.00,VWS V14.00,2013-08-03 07:48:00,
2013-08-03 00:55:00,60.4,49.4,29.74,SSE,158,2.5,2.5,67,0.00,,---,0.00,VWS V14.00,2013-08-03 07:55:00,
2013-08-03 01:00:00,60.4,49.4,29.74,SSE,158,3.8,3.8,67,0.00,,---,0.00,VWS V14.00,2013-08-03 08:00:00,
2013-08-03 01:06:00,60.4,49.4,29.74,SE,135,2.5,2.5,67,0.00,,---,0.00,VWS V14.00,2013-08-03 08:06:00,
2013-08-03 01:12:00,60.4,49.8,29.74,ESE,112,1.1,3.8,68,0.00,,---,0.00,VWS V14.00,2013-08-03 08:12:00,
2013-08-03 01:17:00,60.6,50.0,29.74,SE,135,3.6,3.6,68,0.00,,---,0.00,VWS V14.00,2013-08-03 08:17:00,
2013-08-03 01:22:00,60.6,50.0,29.71,WNW,292,1.1,1.1,68,0.00,,---,0.00,VWS V14.00,2013-08-03 08:22:00,
2013-08-03 01:26:00,60.6,50.0,29.71,SSW,202,1.3,1.3,68,0.00,,---,0.00,VWS V14.00,2013-08-03 08:26:00,
2013-08-03 01:32:00,60.6,50.4,29.71,South,180,3.8,3.8,69,0.00,,---,0.00,VWS V14.00,2013-08-03 08:32:00,
2013-08-03 01:37:00,60.6,50.4,29.71,South,180,2.7,2.7,69,0.00,,---,0.00,VWS V14.00,2013-08-03 08:37:00,
2013-08-03 01:42:00,60.4,50.2,29.71,West,270,3.1,3.1,69,0.00,,---,0.00,VWS V14.00,2013-08-03 08:42:00,
2013-08-03 01:47:00,60.3,50.1,29.71,SSE,158,0.0,3.1,69,0.00,,---,0.00,VWS V14.00,2013-08-03 08:47:00,
2013-08-03 01:52:00,60.3,50.1,29.71,WSW,248,1.6,1.6,69,0.00,,---,0.00,VWS V14.00,2013-08-03 08:52:00,
2013-08-03 01:57:00,60.1,49.9,29.71,West,270,0.0,0.0,69,0.00,,---,0.00,VWS V14.00,2013-08-03 08:57:00,
2013-08-03 02:02:00,59.9,50.1,29.71,SSE,158,1.6,1.6,70,0.00,,---,0.00,VWS V14.00,2013-08-03 09:02:00,
2013-08-03 02:07:00,60.1,50.3,29.71,SW,225,0.0,0.0,70,0.00,,---,0.00,VWS V14.00,2013-08-03 09:07:00,
2013-08-03 02:13:00,60.1,50.3,29.71,West,270,0.0,0.0,70,0.00,,---,0.00,VWS V14.00,2013-08-03 09:13:00,
2013-08-03 02:19:00,60.3,50.8,29.71,WNW,292,0.0,1.1,71,0.00,,---,0.00,VWS V14.00,2013-08-03 09:19:00,
2013-08-03 02:24:00,60.3,50.8,29.71,SSW,202,2.2,2.2,71,0.00,,---,0.00,VWS V14.00,2013-08-03 09:24:00,
2013-08-03 02:29:00,60.1,50.7,29.71,WSW,248,0.9,0.9,71,0.00,,---,0.00,VWS V14.00,2013-08-03 09:29:00,
2013-08-03 02:33:00,60.1,50.7,29.71,South,180,4.9,4.9,71,0.00,,---,0.00,VWS V14.00,2013-08-03 09:33:00,
2013-08-03 02:39:00,60.1,50.7,29.71,ESE,112,3.4,3.4,71,0.00,,---,0.00,VWS V14.00,2013-08-03 09:39:00,
2013-08-03 02:44:00,60.1,50.7,29.71,South,180,0.0,0.0,71,0.00,,---,0.00,VWS V14.00,2013-08-03 09:44:00,
2013-08-03 02:49:00,60.3,50.8,29.71,SSW,202,2.0,2.0,71,0.00,,---,0.00,VWS V14.00,2013-08-03 09:49:00,
2013-08-03 02:54:00,60.1,50.7,29.74,SW,225,0.9,2.7,71,0.00,,---,0.00,VWS V14.00,2013-08-03 09:54:00,
2013-08-03 02:59:00,60.1,50.7,29.74,SSE,158,1.3,1.3,71,0.00,,---,0.00,VWS V14.00,2013-08-03 09:59:00,
2013-08-03 03:05:00,60.1,50.7,29.71,West,270,0.0,2.0,71,0.00,,---,0.00,VWS V14.00,2013-08-03 10:05:00,
2013-08-03 03:10:00,60.1,50.7,29.71,South,180,2.5,2.5,71,0.00,,---,0.00,VWS V14.00,2013-08-03 10:10:00,
2013-08-03 03:15:00,60.1,50.7,29.71,SSW,202,1.6,1.6,71,0.00,,---,0.00,VWS V14.00,2013-08-03 10:15:00,
2013-08-03 03:19:00,60.1,51.0,29.68,SW,225,2.9,3.6,72,0.00,,---,0.00,VWS V14.00,2013-08-03 10:19:00,
2013-08-03 03:25:00,59.9,50.9,29.68,SSE,158,3.6,3.6,72,0.00,,---,0.00,VWS V14.00,2013-08-03 10:25:00,
2013-08-03 03:31:00,60.1,51.0,29.68,WSW,248,0.9,1.1,72,0.00,,---,0.00,VWS V14.00,2013-08-03 10:31:00,
2013-08-03 03:38:00,60.1,51.0,29.68,SSW,202,2.9,2.9,72,0.00,,---,0.00,VWS V14.00,2013-08-03 10:38:00,
2013-08-03 03:43:00,60.1,51.0,29.68,SSW,202,1.6,2.5,72,0.00,,---,0.00,VWS V14.00,2013-08-03 10:43:00,
2013-08-03 03:48:00,60.1,51.0,29.68,SSE,158,3.4,3.4,72,0.00,,---,0.00,VWS V14.00,2013-08-03 10:48:00,
2013-08-03 03:53:00,60.1,51.0,29.68,WSW,248,3.8,3.8,72,0.00,,---,0.00,VWS V14.00,2013-08-03 10:53:00,
2013-08-03 03:59:00,59.9,50.9,29.68,SSW,202,1.6,2.7,72,0.00,,---,0.00,VWS V14.00,2013-08-03 10:59:00,
2013-08-03 04:04:00,59.9,50.9,29.65,SSW,202,2.7,2.7,72,0.00,,---,0.00,VWS V14.00,2013-08-03 11:04:00,
2013-08-03 04:08:00,59.9,50.9,29.65,WSW,248,1.3,2.5,72,0.00,,---,0.00,VWS V14.00,2013-08-03 11:08:00,
2013-08-03 04:14:00,59.9,50.9,29.65,SSW,202,2.5,3.1,72,0.00,,---,0.00,VWS V14.00,2013-08-03 11:14:00,
2013-08-03 04:18:00,59.7,50.7,29.65,SW,225,2.0,3.8,72,0.00,,---,0.00,VWS V14.00,2013-08-03 11:18:00,
2013-08-03 04:24:00,59.7,50.7,29.65,SSE,158,0.0,1.1,72,0.00,,---,0.00,VWS V14.00,2013-08-03 11:24:00,
2013-08-03 04:30:00,59.7,50.7,29.65,WSW,248,3.4,3.4,72,0.00,,---,0.00,VWS V14.00,2013-08-03 11:30:00,
2013-08-03 04:36:00,59.5,50.5,29.68,SSW,202,0.0,1.1,72,0.00,,---,0.00,VWS V14.00,2013-08-03 11:36:00,
2013-08-03 04:42:00,59.7,50.7,29.68,SW,225,2.5,2.5,72,0.00,,---,0.00,VWS V14.00,2013-08-03 11:42:00,
2013-08-03 04:48:00,59.7,50.7,29.68,WNW,292,0.0,0.0,72,0.00,,---,0.00,VWS V14.00,2013-08-03 11:48:00,
2013-08-03 04:53:00,59.7,50.7,29.65,North,0,1.1,2.9,72,0.00,,---,0.00,VWS V14.00,2013-08-03 11:53:00,
2013-08-03 04:58:00,59.7,50.7,29.65,WNW,292,0.0,0.0,72,0.00,,---,0.00,VWS V14.00,2013-08-03 11:58:00,
2013-08-03 05:03:00,59.7,50.7,29.65,NNW,338,2.2,2.2,72,0.00,,---,0.00,VWS V14.00,2013-08-03 12:03:00,
2013-08-03 05:08:00,59.5,50.5,29.65,NNW,338,1.3,1.3,72,0.00,,---,0.00,VWS V14.00,2013-08-03 12:08:00,
2013-08-03 05:14:00,59.5,50.5,29.65,NNW,338,1.3,1.3,72,0.00,,---,0.00,VWS V14.00,2013-08-03 12:14:00,
2013-08-03 05:19:00,59.4,50.3,29.65,NW,315,2.0,2.0,72,0.00,,---,0.00,VWS V14.00,2013-08-03 12:19:00,
2013-08-03 05:24:00,59.4,50.3,29.65,WNW,292,1.1,1.1,72,0.00,,---,0.00,VWS V14.00,2013-08-03 12:24:00,
2013-08-03 05:29:00,59.4,50.3,29.65,NW,315,3.6,3.6,72,0.00,,---,0.00,VWS V14.00,2013-08-03 12:29:00,
2013-08-03 05:33:00,59.4,50.3,29.65,WNW,292,2.9,3.4,72,0.00,,---,0.00,VWS V14.00,2013-08-03 12:33:00,
2013-08-03 05:39:00,59.2,50.2,29.65,NW,315,2.7,2.7,72,0.00,,---,0.00,VWS V14.00,2013-08-03 12:39:00,
2013-08-03 05:44:00,59.2,50.2,29.65,NW,315,2.5,2.7,72,0.00,,---,0.00,VWS V14.00,2013-08-03 12:44:00,
2013-08-03 05:49:00,59.2,50.2,29.65,NW,315,3.4,3.4,72,0.00,,---,0.00,VWS V14.00,2013-08-03 12:49:00,
2013-08-03 05:54:00,59.2,50.2,29.65,WNW,292,0.9,1.1,72,0.00,,---,0.00,VWS V14.00,2013-08-03 12:54:00,
2013-08-03 05:59:00,59.2,50.5,29.65,NW,315,2.7,2.7,73,0.00,,---,0.00,VWS V14.00,2013-08-03 12:59:00,
2013-08-03 06:05:00,59.2,50.5,29.65,NW,315,4.0,4.0,73,0.00,,---,0.00,VWS V14.00,2013-08-03 13:05:00,
2013-08-03 06:11:00,59.2,50.5,29.65,WNW,292,1.3,3.1,73,0.00,,---,0.00,VWS V14.00,2013-08-03 13:11:00,
2013-08-03 06:16:00,59.2,50.5,29.65,NW,315,1.1,2.2,73,0.00,,---,0.00,VWS V14.00,2013-08-03 13:16:00,
2013-08-03 06:22:00,59.2,50.5,29.65,NNW,338,1.3,1.6,73,0.00,,---,0.00,VWS V14.00,2013-08-03 13:22:00,
2013-08-03 06:27:00,59.2,50.5,29.65,NW,315,1.3,2.0,73,0.00,,---,0.00,VWS V14.00,2013-08-03 13:27:00,
2013-08-03 06:34:00,59.2,50.5,29.65,SSW,202,1.3,1.3,73,0.00,,---,0.00,VWS V14.00,2013-08-03 13:34:00,
2013-08-03 06:39:00,59.4,50.7,29.65,SE,135,2.5,2.5,73,0.00,,---,0.00,VWS V14.00,2013-08-03 13:39:00,
2013-08-03 06:45:00,59.5,50.9,29.65,SSE,158,3.4,3.4,73,0.00,,---,0.00,VWS V14.00,2013-08-03 13:45:00,
2013-08-03 06:50:00,59.5,50.9,29.68,South,180,1.1,1.3,73,0.00,,---,0.00,VWS V14.00,2013-08-03 13:50:00,
2013-08-03 06:55:00,59.5,50.9,29.68,WSW,248,2.9,3.1,73,0.00,,---,0.00,VWS V14.00,2013-08-03 13:55:00,
2013-08-03 06:59:00,59.4,50.7,29.68,WSW,248,2.5,2.5,73,0.00,,---,0.00,VWS V14.00,2013-08-03 13:59:00,
2013-08-03 07:06:00,59.4,50.7,29.68,SSW,202,1.3,1.3,73,0.00,,---,0.00,VWS V14.00,2013-08-03 14:06:00,
2013-08-03 07:11:00,59.4,50.7,29.68,West,270,1.3,1.3,73,0.00,,---,0.00,VWS V14.00,2013-08-03 14:11:00,
2013-08-03 07:16:00,59.5,50.9,29.68,WSW,248,0.0,2.5,73,0.00,,---,0.00,VWS V14.00,2013-08-03 14:16:00,
2013-08-03 07:22:00,59.5,50.9,29.68,East,90,1.3,1.3,73,0.00,,---,0.00,VWS V14.00,2013-08-03 14:22:00,
2013-08-03 07:28:00,59.7,51.1,29.68,SSE,158,3.4,3.4,73,0.00,,---,0.00,VWS V14.00,2013-08-03 14:28:00,
2013-08-03 07:34:00,59.9,51.2,29.68,SE,135,2.2,2.2,73,0.00,,---,0.00,VWS V14.00,2013-08-03 14:34:00,
2013-08-03 07:40:00,59.9,51.2,29.68,SSE,158,0.9,1.6,73,0.00,,---,0.00,VWS V14.00,2013-08-03 14:40:00,
2013-08-03 07:45:00,60.1,51.4,29.68,SE,135,0.0,0.0,73,0.00,,---,0.00,VWS V14.00,2013-08-03 14:45:00,
2013-08-03 07:51:00,60.3,51.6,29.68,North,0,0.0,0.0,73,0.00,,---,0.00,VWS V14.00,2013-08-03 14:51:00,
2013-08-03 07:56:00,60.4,51.8,29.68,NNW,338,1.1,1.1,73,0.00,,---,0.00,VWS V14.00,2013-08-03 14:56:00,
2013-08-03 08:01:00,60.6,51.9,29.68,NNE,22,1.1,1.1,73,0.00,,---,0.00,VWS V14.00,2013-08-03 15:01:00,
2013-08-03 08:06:00,60.6,51.9,29.71,WNW,292,2.2,2.2,73,0.00,,---,0.00,VWS V14.00,2013-08-03 15:06:00,
2013-08-03 08:12:00,60.6,51.9,29.71,NNW,338,2.0,2.0,73,0.00,,---,0.00,VWS V14.00,2013-08-03 15:12:00,
2013-08-03 08:17:00,61.0,52.3,29.71,NW,315,0.0,2.5,73,0.00,,---,0.00,VWS V14.00,2013-08-03 15:17:00,
2013-08-03 08:22:00,61.2,52.5,29.68,West,270,0.9,0.9,73,0.00,,---,0.00,VWS V14.00,2013-08-03 15:22:00,
2013-08-03 08:29:00,61.2,52.1,29.68,NNE,22,2.9,2.9,72,0.00,,---,0.00,VWS V14.00,2013-08-03 15:29:00,
2013-08-03 08:34:00,61.3,52.2,29.68,East,90,1.1,1.1,72,0.00,,---,0.00,VWS V14.00,2013-08-03 15:34:00,
2013-08-03 08:40:00,61.9,52.8,29.68,South,180,3.1,3.1,72,0.00,,---,0.00,VWS V14.00,2013-08-03 15:40:00,
2013-08-03 08:45:00,62.6,53.5,29.68,ESE,112,1.3,4.3,72,0.00,,---,0.00,VWS V14.00,2013-08-03 15:45:00,
2013-08-03 08:51:00,63.3,54.2,29.68,SSE,158,2.2,2.7,72,0.00,,---,0.00,VWS V14.00,2013-08-03 15:51:00,
2013-08-03 08:57:00,63.9,54.3,29.68,ESE,112,3.1,3.1,71,0.00,,---,0.00,VWS V14.00,2013-08-03 15:57:00,
2013-08-03 09:02:00,64.0,54.5,29.68,East,90,1.1,1.1,71,0.00,,---,0.00,VWS V14.00,2013-08-03 16:02:00,
2013-08-03 09:06:00,64.2,54.2,29.68,NNE,22,2.5,2.5,70,0.00,,---,0.00,VWS V14.00,2013-08-03 16:06:00,
2013-08-03 09:12:00,64.4,54.4,29.68,WNW,292,2.0,3.4,70,0.00,,---,0.00,VWS V14.00,2013-08-03 16:12:00,
2013-08-03 09:18:00,64.6,54.2,29.68,North,0,1.6,1.6,69,0.00,,---,0.00,VWS V14.00,2013-08-03 16:18:00,
2013-08-03 09:23:00,64.8,54.4,29.68,SSE,158,1.6,1.6,69,0.00,,---,0.00,VWS V14.00,2013-08-03 16:23:00,
2013-08-03 09:29:00,64.9,54.5,29.68,NE,45,2.0,2.0,69,0.00,,---,0.00,VWS V14.00,2013-08-03 16:29:00,
2013-08-03 09:34:00,64.9,54.1,29.68,NE,45,2.0,2.0,68,0.00,,---,0.00,VWS V14.00,2013-08-03 16:34:00,
2013-08-03 09:39:00,65.7,55.2,29.68,NE,45,2.0,2.0,69,0.00,,---,0.00,VWS V14.00,2013-08-03 16:39:00,
2013-08-03 09:45:00,65.7,54.8,29.68,WNW,292,4.0,4.0,68,0.00,,---,0.00,VWS V14.00,2013-08-03 16:45:00,
2013-08-03 09:50:00,65.7,54.8,29.68,WNW,292,4.0,4.0,68,0.00,,---,0.00,VWS V14.00,2013-08-03 16:50:00,
2013-08-03 09:55:00,65.8,54.6,29.68,South,180,0.0,4.0,67,0.00,,---,0.00,VWS V14.00,2013-08-03 16:55:00,
2013-08-03 10:00:00,66.2,54.9,29.68,South,180,1.6,1.6,67,0.00,,---,0.00,VWS V14.00,2013-08-03 17:00:00,
2013-08-03 10:05:00,66.4,55.1,29.68,South,180,1.6,1.6,67,0.00,,---,0.00,VWS V14.00,2013-08-03 17:05:00,
2013-08-03 10:11:00,67.1,55.4,29.68,SSE,158,3.1,3.1,66,0.00,,---,0.00,VWS V14.00,2013-08-03 17:11:00,
2013-08-03 10:17:00,67.1,55.4,29.68,South,180,2.5,2.5,66,0.00,,---,0.00,VWS V14.00,2013-08-03 17:17:00,
2013-08-03 10:22:00,67.6,55.9,29.68,South,180,2.5,2.5,66,0.00,,---,0.00,VWS V14.00,2013-08-03 17:22:00,
2013-08-03 10:27:00,68.2,56.4,29.68,South,180,2.5,2.5,66,0.00,,---,0.00,VWS V14.00,2013-08-03 17:27:00,
2013-08-03 10:33:00,68.7,56.5,29.68,South,180,2.5,2.5,65,0.00,,---,0.00,VWS V14.00,2013-08-03 17:33:00,
2013-08-03 10:38:00,69.3,57.0,29.68,South,180,2.5,2.5,65,0.00,,---,0.00,VWS V14.00,2013-08-03 17:38:00,
2013-08-03 10:43:00,69.8,57.1,29.68,South,180,2.5,2.5,64,0.00,,---,0.00,VWS V14.00,2013-08-03 17:43:00,
2013-08-03 10:49:00,70.3,57.2,29.68,SSE,158,1.3,1.3,63,0.00,,---,0.00,VWS V14.00,2013-08-03 17:49:00,
2013-08-03 10:54:00,70.3,57.2,29.68,SSW,202,4.9,4.9,63,0.00,,---,0.00,VWS V14.00,2013-08-03 17:54:00,
2013-08-03 11:00:00,71.1,57.4,29.68,SSW,202,4.9,4.9,62,0.00,,---,0.00,VWS V14.00,2013-08-03 18:00:00,
2013-08-03 11:06:00,71.2,57.6,29.68,NE,45,1.3,2.5,62,0.00,,---,0.00,VWS V14.00,2013-08-03 18:06:00,
2013-08-03 11:12:00,71.6,57.5,29.68,ENE,68,3.8,5.8,61,0.00,,---,0.00,VWS V14.00,2013-08-03 18:12:00,
2013-08-03 11:17:00,72.1,58.0,29.68,NNW,338,1.6,2.9,61,0.00,,---,0.00,VWS V14.00,2013-08-03 18:17:00,
2013-08-03 11:23:00,72.7,58.0,29.68,WNW,292,2.7,2.7,60,0.00,,---,0.00,VWS V14.00,2013-08-03 18:23:00,
2013-08-03 11:28:00,72.9,58.2,29.68,ENE,68,3.4,3.4,60,0.00,,---,0.00,VWS V14.00,2013-08-03 18:28:00,
2013-08-03 11:33:00,72.9,57.7,29.68,WNW,292,2.2,2.7,59,0.00,,---,0.00,VWS V14.00,2013-08-03 18:33:00,
2013-08-03 11:38:00,72.9,57.7,29.68,NNE,22,4.3,4.3,59,0.00,,---,0.00,VWS V14.00,2013-08-03 18:38:00,
2013-08-03 11:44:00,73.2,57.6,29.68,WNW,292,2.2,2.2,58,0.00,,---,0.00,VWS V14.00,2013-08-03 18:44:00,
2013-08-03 11:49:00,73.6,57.9,29.68,North,0,3.1,3.1,58,0.00,,---,0.00,VWS V14.00,2013-08-03 18:49:00,
2013-08-03 11:55:00,73.8,57.6,29.68,NNE,22,3.1,3.4,57,0.00,,---,0.00,VWS V14.00,2013-08-03 18:55:00,
2013-08-03 12:00:00,74.1,57.9,29.68,NNE,22,2.9,2.9,57,0.00,,---,0.00,VWS V14.00,2013-08-03 19:00:00,
2013-08-03 12:05:00,74.5,58.3,29.68,WNW,292,1.3,5.6,57,0.00,,---,0.00,VWS V14.00,2013-08-03 19:05:00,
2013-08-03 12:11:00,74.5,57.8,29.68,WNW,292,2.7,2.7,56,0.00,,---,0.00,VWS V14.00,2013-08-03 19:11:00,
2013-08-03 12:16:00,74.8,58.1,29.68,NW,315,3.1,3.8,56,0.00,,---,0.00,VWS V14.00,2013-08-03 19:16:00,
2013-08-03 12:22:00,74.8,57.6,29.68,North,0,2.5,2.5,55,0.00,,---,0.00,VWS V14.00,2013-08-03 19:22:00,
2013-08-03 12:28:00,75.6,58.3,29.68,WNW,292,2.0,2.9,55,0.00,,---,0.00,VWS V14.00,2013-08-03 19:28:00,
2013-08-03 12:32:00,75.7,57.9,29.68,NNW,338,3.4,3.4,54,0.00,,---,0.00,VWS V14.00,2013-08-03 19:32:00,
2013-08-03 12:38:00,76.1,58.3,29.68,North,0,2.9,2.9,54,0.00,,---,0.00,VWS V14.00,2013-08-03 19:38:00,
2013-08-03 12:44:00,76.5,58.1,29.68,NNW,338,2.5,2.7,53,0.00,,---,0.00,VWS V14.00,2013-08-03 19:44:00,
2013-08-03 12:49:00,76.6,58.2,29.68,NE,45,1.3,2.5,53,0.00,,---,0.00,VWS V14.00,2013-08-03 19:49:00,
2013-08-03 12:54:00,76.8,57.9,29.68,NNW,338,2.2,2.2,52,0.00,,---,0.00,VWS V14.00,2013-08-03 19:54:00,
2013-08-03 12:59:00,77.0,57.5,29.68,North,0,1.1,4.0,51,0.00,,---,0.00,VWS V14.00,2013-08-03 19:59:00,
2013-08-03 13:04:00,77.0,57.5,29.68,WNW,292,7.6,7.6,51,0.00,,---,0.00,VWS V14.00,2013-08-03 20:04:00,
2013-08-03 13:09:00,77.2,57.7,29.68,ENE,68,2.9,2.9,51,0.00,,---,0.00,VWS V14.00,2013-08-03 20:09:00,
2013-08-03 13:15:00,77.0,57.0,29.68,NNE,22,2.9,2.9,50,0.00,,---,0.00,VWS V14.00,2013-08-03 20:15:00,
2013-08-03 13:21:00,77.2,57.1,29.68,NNW,338,2.2,5.6,50,0.00,,---,0.00,VWS V14.00,2013-08-03 20:21:00,
2013-08-03 13:27:00,77.5,56.9,29.68,WNW,292,3.8,3.8,49,0.00,,---,0.00,VWS V14.00,2013-08-03 20:27:00,
2013-08-03 13:33:00,77.5,56.9,29.68,NW,315,4.0,6.5,49,0.00,,---,0.00,VWS V14.00,2013-08-03 20:33:00,
2013-08-03 13:38:00,77.7,57.1,29.68,NNE,22,2.0,3.8,49,0.00,,---,0.00,VWS V14.00,2013-08-03 20:38:00,
2013-08-03 13:43:00,78.3,57.5,29.68,NW,315,3.1,3.1,49,0.00,,---,0.00,VWS V14.00,2013-08-03 20:43:00,
2013-08-03 13:47:00,78.4,57.7,29.68,North,0,2.7,2.7,49,0.00,,---,0.00,VWS V14.00,2013-08-03 20:47:00,
2013-08-03 13:53:00,78.6,57.3,29.68,North,0,2.7,5.6,48,0.00,,---,0.00,VWS V14.00,2013-08-03 20:53:00,
2013-08-03 13:58:00,78.6,57.3,29.68,NNE,22,2.9,2.9,48,0.00,,---,0.00,VWS V14.00,2013-08-03 20:58:00,
2013-08-03 14:04:00,78.6,57.3,29.68,NW,315,3.1,3.1,48,0.00,,---,0.00,VWS V14.00,2013-08-03 21:04:00,
2013-08-03 14:10:00,78.6,56.7,29.68,NE,45,2.0,3.8,47,0.00,,---,0.00,VWS V14.00,2013-08-03 21:10:00,
2013-08-03 14:16:00,78.8,56.9,29.68,North,0,4.0,4.0,47,0.00,,---,0.00,VWS V14.00,2013-08-03 21:16:00,
2013-08-03 14:21:00,79.0,56.5,29.68,NNW,338,3.4,4.7,46,0.00,,---,0.00,VWS V14.00,2013-08-03 21:21:00,
2013-08-03 14:26:00,79.2,56.6,29.68,NNE,22,2.7,2.7,46,0.00,,---,0.00,VWS V14.00,2013-08-03 21:26:00,
2013-08-03 14:31:00,79.3,56.8,29.68,NNE,22,2.7,4.0,46,0.00,,---,0.00,VWS V14.00,2013-08-03 21:31:00,
2013-08-03 14:36:00,79.2,56.0,29.68,North,0,4.0,4.0,45,0.00,,---,0.00,VWS V14.00,2013-08-03 21:36:00,
2013-08-03 14:42:00,79.2,56.6,29.68,ESE,112,2.7,5.8,46,0.00,,---,0.00,VWS V14.00,2013-08-03 21:42:00,
2013-08-03 14:48:00,79.3,56.2,29.68,NNW,338,2.0,4.7,45,0.00,,---,0.00,VWS V14.00,2013-08-03 21:48:00,
2013-08-03 14:53:00,79.3,56.2,29.68,NNW,338,2.5,2.5,45,0.00,,---,0.00,VWS V14.00,2013-08-03 21:53:00,
2013-08-03 14:59:00,79.3,56.2,29.68,East,90,7.8,7.8,45,0.00,,---,0.00,VWS V14.00,2013-08-03 21:59:00,
2013-08-03 15:03:00,79.0,55.8,29.68,NNE,22,3.8,3.8,45,0.00,,---,0.00,VWS V14.00,2013-08-03 22:03:00,
2013-08-03 15:10:00,79.2,56.0,29.68,NNW,338,2.5,2.9,45,0.00,,---,0.00,VWS V14.00,2013-08-03 22:10:00,
2013-08-03 15:16:00,79.2,56.0,29.68,NW,315,3.6,3.6,45,0.00,,---,0.00,VWS V14.00,2013-08-03 22:16:00,
2013-08-03 15:21:00,79.2,55.4,29.65,NNE,22,2.9,4.0,44,0.00,,---,0.00,VWS V14.00,2013-08-03 22:21:00,
2013-08-03 15:25:00,79.3,55.6,29.65,North,0,2.0,2.7,44,0.00,,---,0.00,VWS V14.00,2013-08-03 22:25:00,
2013-08-03 15:31:00,79.5,55.7,29.65,NE,45,4.3,4.3,44,0.00,,---,0.00,VWS V14.00,2013-08-03 22:31:00,
2013-08-03 15:36:00,79.5,55.7,29.65,NE,45,5.6,5.6,44,0.00,,---,0.00,VWS V14.00,2013-08-03 22:36:00,
2013-08-03 15:40:00,79.5,55.7,29.65,NNW,338,2.2,2.2,44,0.00,,---,0.00,VWS V14.00,2013-08-03 22:40:00,
2013-08-03 15:46:00,79.7,55.9,29.65,ENE,68,1.6,1.6,44,0.00,,---,0.00,VWS V14.00,2013-08-03 22:46:00,
2013-08-03 15:51:00,79.7,55.9,29.65,ENE,68,2.5,3.8,44,0.00,,---,0.00,VWS V14.00,2013-08-03 22:51:00,
2013-08-03 15:56:00,79.7,55.9,29.65,NNE,22,1.6,2.2,44,0.00,,---,0.00,VWS V14.00,2013-08-03 22:56:00,
2013-08-03 16:01:00,79.9,56.0,29.65,NW,315,3.8,3.8,44,0.00,,---,0.00,VWS V14.00,2013-08-03 23:01:00,
2013-08-03 16:07:00,80.1,56.2,29.65,North,0,2.0,2.0,44,0.00,,---,0.00,VWS V14.00,2013-08-03 23:07:00,
2013-08-03 16:12:00,80.1,56.2,29.65,NNE,22,2.5,2.7,44,0.00,,---,0.00,VWS V14.00,2013-08-03 23:12:00,
2013-08-03 16:17:00,79.9,56.0,29.65,North,0,2.7,2.7,44,0.00,,---,0.00,VWS V14.00,2013-08-03 23:17:00,
2013-08-03 16:22:00,79.9,55.4,29.65,NE,45,2.5,2.7,43,0.00,,---,0.00,VWS V14.00,2013-08-03 23:22:00,
2013-08-03 16:27:00,79.7,55.2,29.65,WNW,292,2.7,3.1,43,0.00,,---,0.00,VWS V14.00,2013-08-03 23:27:00,
2013-08-03 16:32:00,79.7,55.2,29.65,NW,315,2.2,2.9,43,0.00,,---,0.00,VWS V14.00,2013-08-03 23:32:00,
2013-08-03 16:37:00,79.7,55.2,29.65,NNE,22,3.6,3.6,43,0.00,,---,0.00,VWS V14.00,2013-08-03 23:37:00,
2013-08-03 16:44:00,79.3,54.9,29.65,West,270,2.9,5.8,43,0.00,,---,0.00,VWS V14.00,2013-08-03 23:44:00,
2013-08-03 16:49:00,79.3,54.9,29.65,NNE,22,3.4,3.8,43,0.00,,---,0.00,VWS V14.00,2013-08-03 23:49:00,
2013-08-03 16:54:00,79.3,54.9,29.65,North,0,2.9,2.9,43,0.00,,---,0.00,VWS V14.00,2013-08-03 23:54:00,
2013-08-03 16:59:00,78.8,54.4,29.65,NE,45,5.4,5.4,43,0.00,,---,0.00,VWS V14.00,2013-08-03 23:59:00,
2013-08-03 17:05:00,78.6,54.3,29.65,NW,315,3.6,3.6,43,0.00,,---,0.00,VWS V14.00,2013-08-04 00:05:00,
2013-08-03 17:10:00,78.6,54.3,29.65,NE,45,3.6,3.6,43,0.00,,---,0.00,VWS V14.00,2013-08-04 00:10:00,
2013-08-03 17:15:00,78.3,54.0,29.65,NW,315,1.6,2.7,43,0.00,,---,0.00,VWS V14.00,2013-08-04 00:15:00,
2013-08-03 17:20:00,78.1,54.4,29.65,North,0,2.5,2.7,44,0.00,,---,0.00,VWS V14.00,2013-08-04 00:20:00,
2013-08-03 17:24:00,78.1,54.4,29.65,SSW,202,2.0,2.5,44,0.00,,---,0.00,VWS V14.00,2013-08-04 00:24:00,
2013-08-03 17:29:00,78.1,54.4,29.65,NNE,22,2.9,2.9,44,0.00,,---,0.00,VWS V14.00,2013-08-04 00:29:00,
2013-08-03 17:35:00,77.9,54.3,29.65,NNE,22,3.4,3.4,44,0.00,,---,0.00,VWS V14.00,2013-08-04 00:35:00,
2013-08-03 17:42:00,77.7,54.1,29.65,NNE,22,1.6,2.5,44,0.00,,---,0.00,VWS V14.00,2013-08-04 00:42:00,
2013-08-03 17:47:00,77.7,54.1,29.65,NNE,22,1.6,1.6,44,0.00,,---,0.00,VWS V14.00,2013-08-04 00:47:00,
2013-08-03 17:53:00,77.7,54.1,29.65,NNE,22,2.5,2.5,44,0.00,,---,0.00,VWS V14.00,2013-08-04 00:53:00,
2013-08-03 17:58:00,77.5,53.9,29.65,NW,315,2.0,2.0,44,0.00,,---,0.00,VWS V14.00,2013-08-04 00:58:00,
2013-08-03 18:03:00,77.5,53.9,29.65,NNW,338,2.5,2.5,44,0.00,,---,0.00,VWS V14.00,2013-08-04 01:03:00,
2013-08-03 18:08:00,77.5,53.9,29.65,NE,45,2.0,2.0,44,0.00,,---,0.00,VWS V14.00,2013-08-04 01:08:00,
2013-08-03 18:13:00,77.5,54.5,29.65,NE,45,1.6,2.5,45,0.00,,---,0.00,VWS V14.00,2013-08-04 01:13:00,
2013-08-03 18:20:00,77.2,54.2,29.65,NW,315,1.1,4.0,45,0.00,,---,0.00,VWS V14.00,2013-08-04 01:20:00,
2013-08-03 18:24:00,77.0,54.1,29.65,NW,315,2.0,2.5,45,0.00,,---,0.00,VWS V14.00,2013-08-04 01:24:00,
2013-08-03 18:30:00,76.5,54.2,29.65,NNW,338,2.5,4.9,46,0.00,,---,0.00,VWS V14.00,2013-08-04 01:30:00,
2013-08-03 18:35:00,76.3,54.0,29.68,NW,315,3.6,3.6,46,0.00,,---,0.00,VWS V14.00,2013-08-04 01:35:00,
2013-08-03 18:40:00,76.1,53.8,29.68,WNW,292,2.9,3.6,46,0.00,,---,0.00,VWS V14.00,2013-08-04 01:40:00,
2013-08-03 18:45:00,75.9,53.7,29.68,WNW,292,2.9,2.9,46,0.00,,---,0.00,VWS V14.00,2013-08-04 01:45:00,
2013-08-03 18:51:00,75.6,53.9,29.65,NNW,338,2.5,2.9,47,0.00,,---,0.00,VWS V14.00,2013-08-04 01:51:00,
2013-08-03 18:56:00,75.0,53.4,29.65,NW,315,0.9,1.1,47,0.00,,---,0.00,VWS V14.00,2013-08-04 01:56:00,
2013-08-03 19:01:00,74.5,53.0,29.65,WNW,292,1.1,1.1,47,0.00,,---,0.00,VWS V14.00,2013-08-04 02:01:00,
2013-08-03 19:07:00,74.1,52.6,29.65,NW,315,1.6,1.6,47,0.00,,---,0.00,VWS V14.00,2013-08-04 02:07:00,
2013-08-03 19:13:00,73.8,52.9,29.65,NW,315,0.9,2.0,48,0.00,,---,0.00,VWS V14.00,2013-08-04 02:13:00,
2013-08-03 19:17:00,73.4,52.5,29.65,SSE,158,1.3,1.3,48,0.00,,---,0.00,VWS V14.00,2013-08-04 02:17:00,
2013-08-03 19:23:00,72.9,52.0,29.65,NW,315,3.1,3.1,48,0.00,,---,0.00,VWS V14.00,2013-08-04 02:23:00,
2013-08-03 19:28:00,72.5,51.7,29.65,NW,315,2.9,2.9,48,0.00,,---,0.00,VWS V14.00,2013-08-04 02:28:00,
2013-08-03 19:33:00,72.0,51.8,29.65,NW,315,2.0,2.0,49,0.00,,---,0.00,VWS V14.00,2013-08-04 02:33:00,
2013-08-03 19:37:00,71.8,51.6,29.65,WNW,292,2.5,3.6,49,0.00,,---,0.00,VWS V14.00,2013-08-04 02:37:00,
2013-08-03 19:43:00,71.1,51.5,29.65,NNW,338,0.9,2.0,50,0.00,,---,0.00,VWS V14.00,2013-08-04 02:43:00,
2013-08-03 19:49:00,70.7,51.2,29.65,WNW,292,1.1,2.0,50,0.00,,---,0.00,VWS V14.00,2013-08-04 02:49:00,
2013-08-03 19:54:00,70.3,50.8,29.65,NW,315,0.0,2.0,50,0.00,,---,0.00,VWS V14.00,2013-08-04 02:54:00,
2013-08-03 19:59:00,70.3,50.8,29.65,NW,315,1.1,1.1,50,0.00,,---,0.00,VWS V14.00,2013-08-04 02:59:00,
2013-08-03 20:04:00,70.0,51.6,29.65,North,0,0.0,0.0,52,0.00,,---,0.00,VWS V14.00,2013-08-04 03:04:00,
2013-08-03 20:10:00,69.8,51.4,29.65,North,0,0.9,0.9,52,0.00,,---,0.00,VWS V14.00,2013-08-04 03:10:00,
2013-08-03 20:15:00,69.8,51.4,29.65,NE,45,0.0,1.3,52,0.00,,---,0.00,VWS V14.00,2013-08-04 03:15:00,
2013-08-03 20:20:00,69.1,50.7,29.68,SW,225,0.0,0.0,52,0.00,,---,0.00,VWS V14.00,2013-08-04 03:20:00,
2013-08-03 20:25:00,68.7,50.9,29.68,ESE,112,2.2,2.2,53,0.00,,---,0.00,VWS V14.00,2013-08-04 03:25:00,
2013-08-03 20:31:00,68.4,50.6,29.68,NNE,22,0.0,0.0,53,0.00,,---,0.00,VWS V14.00,2013-08-04 03:31:00,
2013-08-03 20:37:00,68.4,51.1,29.65,NNE,22,0.0,0.0,54,0.00,,---,0.00,VWS V14.00,2013-08-04 03:37:00,
2013-08-03 20:42:00,68.0,50.8,29.65,North,0,0.0,0.9,54,0.00,,---,0.00,VWS V14.00,2013-08-04 03:42:00,
2013-08-03 20:47:00,67.6,50.9,29.65,NNE,22,0.0,0.0,55,0.00,,---,0.00,VWS V14.00,2013-08-04 03:47:00,
2013-08-03 20:54:00,67.3,50.6,29.65,ESE,112,0.0,0.0,55,0.00,,---,0.00,VWS V14.00,2013-08-04 03:54:00,
2013-08-03 20:58:00,67.3,50.6,29.65,SSE,158,0.0,0.0,55,0.00,,---,0.00,VWS V14.00,2013-08-04 03:58:00,
2013-08-03 21:01:00,67.3,50.6,29.65,ESE,112,2.2,2.2,55,0.00,,---,0.00,VWS V14.00,2013-08-04 04:01:00,
2013-08-03 21:03:00,67.3,50.6,29.65,ESE,112,1.1,1.1,55,0.00,,---,0.00,VWS V14.00,2013-08-04 04:03:00,
2013-08-03 21:04:00,67.3,50.6,29.65,ESE,112,1.1,1.1,55,0.00,,---,0.00,VWS V14.00,2013-08-04 04:04:00,
2013-08-03 21:05:00,67.3,50.6,29.68,ESE,112,1.1,1.1,55,0.00,,---,0.00,VWS V14.00,2013-08-04 04:05:00,
2013-08-03 21:11:00,66.6,50.4,29.68,SSE,158,3.6,3.6,56,0.00,,---,0.00,VWS V14.00,2013-08-04 04:11:00,
2013-08-03 21:13:00,66.6,50.4,29.68,ESE,112,2.0,2.5,56,0.00,,---,0.00,VWS V14.00,2013-08-04 04:13:00,
2013-08-03 21:18:00,66.6,50.4,29.68,SSE,158,1.6,1.6,56,0.00,,---,0.00,VWS V14.00,2013-08-04 04:18:00,
2013-08-03 21:24:00,66.0,50.8,29.68,SSE,158,3.1,3.1,58,0.00,,---,0.00,VWS V14.00,2013-08-04 04:24:00,
2013-08-03 21:30:00,65.8,50.7,29.68,ESE,112,2.5,2.9,58,0.00,,---,0.00,VWS V14.00,2013-08-04 04:30:00,
2013-08-03 21:36:00,65.8,50.7,29.68,SSE,158,2.5,2.5,58,0.00,,---,0.00,VWS V14.00,2013-08-04 04:36:00,
2013-08-03 21:40:00,65.1,50.5,29.68,SSE,158,0.0,0.0,59,0.00,,---,0.00,VWS V14.00,2013-08-04 04:40:00,
2013-08-03 21:46:00,65.1,50.5,29.68,East,90,1.3,3.4,59,0.00,,---,0.00,VWS V14.00,2013-08-04 04:46:00,
2013-08-03 21:51:00,65.1,50.5,29.68,East,90,1.6,1.6,59,0.00,,---,0.00,VWS V14.00,2013-08-04 04:51:00,
2013-08-03 21:56:00,64.8,50.6,29.68,SE,135,0.9,3.1,60,0.00,,---,0.00,VWS V14.00,2013-08-04 04:56:00,
2013-08-03 22:02:00,64.8,50.6,29.68,SSE,158,2.9,2.9,60,0.00,,---,0.00,VWS V14.00,2013-08-04 05:02:00,
2013-08-03 22:07:00,64.4,50.2,29.71,SSE,158,3.1,3.1,60,0.00,,---,0.00,VWS V14.00,2013-08-04 05:07:00,
2013-08-03 22:12:00,64.2,50.5,29.71,SE,135,3.6,3.6,61,0.00,,---,0.00,VWS V14.00,2013-08-04 05:12:00,
2013-08-03 22:18:00,64.0,50.3,29.71,SE,135,2.7,2.7,61,0.00,,---,0.00,VWS V14.00,2013-08-04 05:18:00,
2013-08-03 22:23:00,63.9,50.6,29.71,ESE,112,1.6,2.2,62,0.00,,---,0.00,VWS V14.00,2013-08-04 05:23:00,
2013-08-03 22:29:00,63.7,50.4,29.71,ESE,112,0.0,0.0,62,0.00,,---,0.00,VWS V14.00,2013-08-04 05:29:00,
2013-08-03 22:34:00,63.5,50.3,29.71,SSE,158,2.0,2.0,62,0.00,,---,0.00,VWS V14.00,2013-08-04 05:34:00,
2013-08-03 22:39:00,63.1,49.9,29.71,SSE,158,1.3,3.1,62,0.00,,---,0.00,VWS V14.00,2013-08-04 05:39:00,
2013-08-03 22:45:00,63.0,50.2,29.71,SSW,202,1.1,1.1,63,0.00,,---,0.00,VWS V14.00,2013-08-04 05:45:00,
2013-08-03 22:50:00,62.8,50.0,29.71,SSE,158,1.3,1.3,63,0.00,,---,0.00,VWS V14.00,2013-08-04 05:50:00,
2013-08-03 22:56:00,62.6,49.8,29.71,South,180,0.0,0.0,63,0.00,,---,0.00,VWS V14.00,2013-08-04 05:56:00,
2013-08-03 23:02:00,62.6,50.3,29.71,NNW,338,0.0,1.3,64,0.00,,---,0.00,VWS V14.00,2013-08-04 06:02:00,
2013-08-03 23:07:00,62.2,49.9,29.71,NW,315,1.3,1.3,64,0.00,,---,0.00,VWS V14.00,2013-08-04 06:07:00,
2013-08-03 23:12:00,61.9,49.6,29.71,NW,315,1.3,1.3,64,0.00,,---,0.00,VWS V14.00,2013-08-04 06:12:00,
2013-08-03 23:17:00,61.9,49.6,29.71,North,0,0.0,1.1,64,0.00,,---,0.00,VWS V14.00,2013-08-04 06:17:00,
2013-08-03 23:23:00,61.7,49.4,29.71,NW,315,0.0,0.0,64,0.00,,---,0.00,VWS V14.00,2013-08-04 06:23:00,
2013-08-03 23:28:00,61.7,49.4,29.71,North,0,0.0,0.0,64,0.00,,---,0.00,VWS V14.00,2013-08-04 06:28:00,
2013-08-03 23:33:00,61.3,49.5,29.71,East,90,0.0,1.1,65,0.00,,---,0.00,VWS V14.00,2013-08-04 06:33:00,
2013-08-03 23:39:00,61.3,49.5,29.71,NNE,22,0.0,2.5,65,0.00,,---,0.00,VWS V14.00,2013-08-04 06:39:00,
2013-08-03 23:45:00,61.3,49.5,29.71,NNE,22,0.0,0.0,65,0.00,,---,0.00,VWS V14.00,2013-08-04 06:45:00,
2013-08-03 23:50:00,61.3,49.5,29.71,NNW,338,0.0,0.0,65,0.00,,---,0.00,VWS V14.00,2013-08-04 06:50:00,
2013-08-03 23:54:00,61.0,49.5,29.71,NNW,338,0.0,0.0,66,0.00,,---,0.00,VWS V14.00,2013-08-04 06:54:00,